Time;durP1;ratioP1;P1;durP2;ratioP2;P2;SDS_P1;SDS_P2;PMS_P1;PMS_P2;Temp;Humidity;BMP_temperature;BMP_pressure;BME280_temperature;BME280_humidity;BME280_pressure;Samples;Min_cycle;Max_cycle;Signal;HPM_P1;HPM_P2
2023/10/06 00:02:30;;;;;;;8.18;3.90;;;;;;;8.01;100.00;98456.59;5020612;28;20445;-86
2023/10/06 00:04:56;;;;;;;8.60;4.43;;;;;;;8.01;100.00;98453.97;5018745;28;20417;-86
2023/10/06 00:07:24;;;;;;;12.33;4.90;;;;;;;8.00;100.00;98449.72;5030893;28;20396;-86
2023/10/06 00:09:53;;;;;;;10.00;4.68;;;;;;;7.98;100.00;98453.56;5001011;28;20407;-87
2023/10/06 00:12:19;;;;;;;7.60;4.38;;;;;;;7.97;100.00;98463.31;5015955;28;20441;-87
2023/10/06 00:14:48;;;;;;;7.82;4.13;;;;;;;7.95;100.00;98465.34;5025777;28;20469;-88
2023/10/06 00:17:17;;;;;;;8.88;4.32;;;;;;;7.92;100.00;98462.31;5013392;28;20436;-88
2023/10/06 00:19:46;;;;;;;6.90;3.97;;;;;;;7.90;100.00;98459.06;5001615;28;20421;-87
2023/10/06 00:22:17;;;;;;;8.98;4.57;;;;;;;7.89;100.00;98463.56;5021189;28;20405;-87
2023/10/06 00:24:46;;;;;;;9.85;4.95;;;;;;;7.88;100.00;98461.94;5013068;28;20444;-87
2023/10/06 00:27:18;;;;;;;9.90;4.72;;;;;;;7.88;100.00;98455.84;5012272;28;20395;-87
2023/10/06 00:29:48;;;;;;;9.53;4.80;;;;;;;7.88;100.00;98454.03;5021035;28;20416;-87
2023/10/06 00:32:27;;;;;;;6.88;4.20;;;;;;;7.86;100.00;98453.41;5011950;28;20414;-86
2023/10/06 00:35:15;;;;;;;7.85;4.40;;;;;;;7.84;100.00;98463.34;5011877;28;20410;-86
2023/10/06 00:37:41;;;;;;;8.23;4.30;;;;;;;7.80;100.00;98464.78;5011847;28;20806;-87
2023/10/06 00:40:11;;;;;;;7.57;4.45;;;;;;;7.77;100.00;98458.09;5005095;28;20406;-87
2023/10/06 00:42:38;;;;;;;8.30;4.55;;;;;;;7.75;100.00;98449.56;5012057;28;20437;-87
2023/10/06 00:45:09;;;;;;;7.13;4.10;;;;;;;7.74;100.00;98453.22;5010654;28;20430;-88
2023/10/06 00:47:38;;;;;;;7.80;3.95;;;;;;;7.74;100.00;98453.22;5015255;28;20421;-86
2023/10/06 00:50:07;;;;;;;10.95;4.80;;;;;;;7.71;100.00;98439.66;5000684;28;20594;-86
2023/10/06 00:52:34;;;;;;;8.60;4.17;;;;;;;7.69;100.00;98439.88;5005621;28;20412;-85
2023/10/06 00:55:05;;;;;;;8.73;4.50;;;;;;;7.67;100.00;98436.63;5013373;28;20432;-86
2023/10/06 00:57:32;;;;;;;8.53;4.30;;;;;;;7.65;100.00;98437.88;5001329;28;20406;-85
2023/10/06 00:59:59;;;;;;;6.97;4.43;;;;;;;7.62;100.00;98441.72;5002342;28;20394;-85
2023/10/06 01:02:25;;;;;;;8.80;4.63;;;;;;;7.60;100.00;98443.72;5013685;28;20432;-85
2023/10/06 01:04:54;;;;;;;8.30;4.63;;;;;;;7.59;100.00;98433.44;5008310;28;20446;-86
2023/10/06 01:07:24;;;;;;;11.40;4.75;;;;;;;7.60;100.00;98421.84;5002482;28;20403;-86
2023/10/06 01:09:59;;;;;;;8.40;4.63;;;;;;;7.58;100.00;98435.25;5009194;28;20448;-86
2023/10/06 01:12:26;;;;;;;8.27;4.60;;;;;;;7.55;100.00;98430.38;5002978;28;20818;-86
2023/10/06 01:15:05;;;;;;;8.65;4.72;;;;;;;7.53;100.00;98427.13;5003964;28;20445;-86
2023/10/06 01:17:33;;;;;;;7.65;4.53;;;;;;;7.52;100.00;98425.50;5004707;28;20407;-87
2023/10/06 01:19:59;;;;;;;8.60;4.22;;;;;;;7.50;100.00;98418.84;5019844;28;20716;-85
2023/10/06 01:22:30;;;;;;;8.60;4.53;;;;;;;7.48;100.00;98423.50;5001305;28;20437;-87
2023/10/06 01:25:04;;;;;;;8.03;4.43;;;;;;;7.46;100.00;98428.16;5000996;28;20446;-86
2023/10/06 01:27:30;;;;;;;8.55;4.38;;;;;;;7.42;100.00;98429.59;5009698;28;20933;-86
2023/10/06 01:32:45;;;;;;;10.93;4.80;;;;;;;7.35;100.00;98425.16;5010781;28;20403;-87
2023/10/06 01:35:13;;;;;;;7.72;4.82;;;;;;;7.34;100.00;98422.72;5012375;28;20399;-87
2023/10/06 01:37:42;;;;;;;8.02;4.45;;;;;;;7.32;100.00;98417.66;5009633;28;20414;-86
2023/10/06 01:40:18;;;;;;;8.82;4.43;;;;;;;7.31;100.00;98418.66;5010710;28;20482;-85
2023/10/06 01:42:45;;;;;;;6.77;3.70;;;;;;;7.30;100.00;98422.31;5005149;28;20984;-84
2023/10/06 01:45:17;;;;;;;9.45;4.70;;;;;;;7.27;100.00;98421.91;5012445;28;20977;-87
2023/10/06 01:47:43;;;;;;;8.20;4.05;;;;;;;7.26;100.00;98415.03;5012970;28;20410;-84
2023/10/06 01:50:09;;;;;;;9.57;4.68;;;;;;;7.25;100.00;98411.59;5015384;28;20383;-87
2023/10/06 01:52:39;;;;;;;8.63;5.13;;;;;;;7.24;100.00;98415.22;5010110;28;20407;-86
2023/10/06 01:55:09;;;;;;;8.75;4.25;;;;;;;7.23;100.00;98405.69;5015335;28;20407;-86
2023/10/06 01:57:35;;;;;;;8.00;4.47;;;;;;;7.23;100.00;98408.34;5021444;28;20402;-86
2023/10/06 02:00:03;;;;;;;7.55;4.20;;;;;;;7.22;100.00;98414.59;5020906;28;20399;-85
2023/10/06 02:02:30;;;;;;;9.60;4.68;;;;;;;7.21;100.00;98409.56;5016155;28;20400;-85
2023/10/06 02:04:59;;;;;;;8.73;4.63;;;;;;;7.18;100.00;98416.03;5023810;28;20413;-85
2023/10/06 02:07:25;;;;;;;7.13;4.40;;;;;;;7.19;100.00;98407.13;5016010;28;20437;-87
2023/10/06 02:09:51;;;;;;;8.55;4.57;;;;;;;7.18;100.00;98402.88;5016046;28;20417;-84
2023/10/06 02:12:19;;;;;;;7.70;4.50;;;;;;;7.17;100.00;98395.19;5016222;28;20400;-87
2023/10/06 02:14:47;;;;;;;6.80;4.23;;;;;;;7.16;100.00;98397.00;5011799;28;20411;-86
2023/10/06 02:17:13;;;;;;;6.68;4.10;;;;;;;7.14;100.00;98400.88;5006279;28;20406;-86
2023/10/06 02:19:42;;;;;;;6.60;4.00;;;;;;;7.13;100.00;98394.78;5012574;28;20402;-87
2023/10/06 02:22:08;;;;;;;9.10;4.70;;;;;;;7.12;100.00;98406.34;5014283;28;20413;-86
2023/10/06 02:24:35;;;;;;;10.02;4.50;;;;;;;7.10;100.00;98392.56;5010380;28;20486;-85
2023/10/06 02:27:01;;;;;;;7.97;4.05;;;;;;;7.10;100.00;98394.38;5011242;28;20457;-84
2023/10/06 02:29:29;;;;;;;7.40;3.92;;;;;;;7.09;100.00;98398.81;5016525;28;20410;-85
2023/10/06 02:32:14;;;;;;;7.70;4.33;;;;;;;7.07;100.00;98395.59;5003527;28;20413;-85
2023/10/06 02:34:40;;;;;;;12.35;4.63;;;;;;;7.07;100.00;98394.81;4997548;28;20417;-84
2023/10/06 02:37:06;;;;;;;6.95;4.38;;;;;;;7.06;100.00;98391.34;4997607;28;20406;-84
2023/10/06 02:39:38;;;;;;;10.43;5.00;;;;;;;7.05;100.00;98396.81;5008222;28;20402;-84
2023/10/06 02:42:09;;;;;;;8.50;4.60;;;;;;;7.05;100.00;98395.00;4998893;28;20417;-85
2023/10/06 02:44:38;;;;;;;8.38;4.72;;;;;;;7.03;100.00;98393.56;5007836;28;20414;-86
2023/10/06 02:47:09;;;;;;;8.60;4.50;;;;;;;7.05;100.00;98396.81;5000418;28;20410;-84
2023/10/06 02:49:37;;;;;;;8.57;4.68;;;;;;;7.07;100.00;98392.16;5003755;28;20406;-84
2023/10/06 02:52:15;;;;;;;10.25;5.30;;;;;;;7.10;100.00;98397.00;5008228;28;20429;-84
2023/10/06 02:54:46;;;;;;;10.53;4.93;;;;;;;7.15;100.00;98392.75;5012647;28;20706;-85
2023/10/06 02:57:13;;;;;;;8.68;4.93;;;;;;;7.17;100.00;98400.44;5005037;28;20462;-85
2023/10/06 02:59:43;;;;;;;8.55;4.45;;;;;;;7.16;100.00;98390.91;5005527;28;20399;-85
2023/10/06 03:02:15;;;;;;;8.15;3.97;;;;;;;7.13;100.00;98400.06;5012919;28;20436;-85
2023/10/06 03:04:46;;;;;;;7.72;4.60;;;;;;;7.11;100.00;98401.25;5011914;28;20508;-86
2023/10/06 03:07:15;;;;;;;6.57;4.30;;;;;;;7.07;100.00;98397.44;5009455;28;20395;-88
2023/10/06 03:09:46;;;;;;;6.53;3.63;;;;;;;7.05;100.00;98395.00;5010222;28;20425;-87
2023/10/06 03:12:20;;;;;;;7.50;4.17;;;;;;;7.03;100.00;98399.66;5010162;28;20586;-87
2023/10/06 03:14:50;;;;;;;8.68;4.63;;;;;;;7.02;100.00;98389.31;5006796;28;20403;-87
2023/10/06 03:17:19;;;;;;;7.65;4.25;;;;;;;6.98;100.00;98397.63;5015228;28;20412;-86
2023/10/06 03:20:01;;;;;;;12.00;5.28;;;;;;;6.96;100.00;98399.66;5014841;28;20410;-86
2023/10/06 03:22:28;;;;;;;8.90;4.70;;;;;;;6.91;100.00;98393.38;5003468;28;20937;-86
2023/10/06 03:25:14;;;;;;;9.68;5.07;;;;;;;6.88;100.00;98393.78;5011329;28;20476;-86
2023/10/06 03:27:42;;;;;;;9.60;5.10;;;;;;;6.86;100.00;98393.97;5003576;28;20417;-87
2023/10/06 03:30:18;;;;;;;11.25;4.97;;;;;;;6.83;100.00;98398.84;5003493;28;20493;-87
2023/10/06 03:32:48;;;;;;;8.25;4.72;;;;;;;6.82;100.00;98397.22;5012905;28;20493;-87
2023/10/06 03:35:23;;;;;;;9.45;5.10;;;;;;;6.78;100.00;98390.72;5004474;28;20406;-87
2023/10/06 03:37:52;;;;;;;8.07;4.90;;;;;;;6.77;100.00;98394.38;5018077;28;20451;-86
2023/10/06 03:40:23;;;;;;;8.27;4.93;;;;;;;6.75;100.00;98399.84;5009659;28;20465;-84
2023/10/06 03:42:50;;;;;;;9.77;4.80;;;;;;;6.73;100.00;98396.59;5017889;28;20450;-85
2023/10/06 03:45:27;;;;;;;9.40;5.05;;;;;;;6.73;100.00;98404.50;5005548;28;20430;-86
2023/10/06 03:48:08;;;;;;;10.77;5.97;;;;;;;6.73;100.00;98393.16;5002844;28;20417;-86
2023/10/06 03:50:38;;;;;;;8.63;4.72;;;;;;;6.74;100.00;98390.34;5019423;28;20401;-86
2023/10/06 03:53:07;;;;;;;10.25;5.47;;;;;;;6.75;100.00;98388.53;5006574;28;20410;-86
2023/10/06 03:55:34;;;;;;;9.80;4.83;;;;;;;6.75;100.00;98389.34;5008177;28;20464;-84
2023/10/06 03:58:03;;;;;;;13.60;6.45;;;;;;;6.72;100.00;98389.72;5008057;28;20914;-85
2023/10/06 04:00:38;;;;;;;12.20;5.95;;;;;;;6.72;100.00;98386.28;5012996;28;20453;-86
2023/10/06 04:03:05;;;;;;;9.70;5.67;;;;;;;6.69;100.00;98379.59;5003264;28;20411;-87
2023/10/06 04:05:37;;;;;;;11.02;5.10;;;;;;;6.70;100.00;98385.66;5002654;28;20902;-86
2023/10/06 04:08:07;;;;;;;9.60;5.80;;;;;;;6.71;100.00;98376.75;5006832;28;20420;-86
2023/10/06 04:10:36;;;;;;;9.43;4.95;;;;;;;6.71;100.00;98377.56;5004763;28;20397;-86
2023/10/06 04:13:05;;;;;;;11.07;5.25;;;;;;;6.70;100.00;98378.59;5015455;28;20428;-86
2023/10/06 04:15:33;;;;;;;8.80;5.40;;;;;;;6.70;100.00;98383.03;5009084;28;20402;-86
2023/10/06 04:17:59;;;;;;;9.67;5.60;;;;;;;6.67;100.00;98376.38;5013103;28;20474;-84
2023/10/06 04:20:26;;;;;;;10.63;5.13;;;;;;;6.65;100.00;98378.38;5005369;28;20499;-85
2023/10/06 04:22:52;;;;;;;7.45;4.90;;;;;;;6.63;100.00;98374.31;5008546;28;20756;-85
2023/10/06 04:25:20;;;;;;;9.93;5.25;;;;;;;6.63;100.00;98374.31;5010481;28;20445;-84
2023/10/06 04:27:47;;;;;;;10.23;5.72;;;;;;;6.62;100.00;98386.66;5000616;28;20415;-85
2023/10/06 04:30:13;;;;;;;10.38;6.05;;;;;;;6.64;100.00;98375.94;5006665;28;20405;-84
2023/10/06 04:32:41;;;;;;;13.32;6.85;;;;;;;6.62;100.00;98368.25;5003762;28;20971;-83
2023/10/06 04:35:19;;;;;;;13.05;6.68;;;;;;;6.61;100.00;98364.03;5003812;28;20802;-86
2023/10/06 04:37:46;;;;;;;10.45;5.75;;;;;;;6.60;100.00;98373.75;5002495;28;20477;-85
2023/10/06 04:40:17;;;;;;;9.67;5.27;;;;;;;6.60;100.00;98365.03;5010418;28;20897;-85
2023/10/06 04:42:43;;;;;;;7.60;5.20;;;;;;;6.59;100.00;98360.78;5007715;28;20411;-83
2023/10/06 04:45:12;;;;;;;8.30;5.03;;;;;;;6.58;100.00;98365.22;5004479;28;20426;-84
2023/10/06 04:47:40;;;;;;;7.60;5.10;;;;;;;6.57;100.00;98360.16;5007384;28;20409;-84
2023/10/06 04:50:09;;;;;;;10.80;5.25;;;;;;;6.55;100.00;98365.63;5011127;28;20479;-85
2023/10/06 04:52:36;;;;;;;8.25;5.07;;;;;;;6.54;100.00;98363.22;5006843;28;20405;-85
2023/10/06 04:55:03;;;;;;;8.30;5.22;;;;;;;6.51;100.00;98361.78;4991438;28;20401;-85
2023/10/06 04:57:29;;;;;;;8.10;4.82;;;;;;;6.50;100.00;98364.63;5004448;28;20422;-82
2023/10/06 04:59:56;;;;;;;9.82;5.28;;;;;;;6.48;100.00;98366.63;5007983;28;20397;-83
2023/10/06 05:02:23;;;;;;;10.30;5.55;;;;;;;6.47;100.00;98363.19;4998139;28;20403;-84
2023/10/06 05:04:51;;;;;;;7.70;5.25;;;;;;;6.46;100.00;98350.25;5006878;28;20454;-86
2023/10/06 05:07:18;;;;;;;9.82;5.60;;;;;;;6.44;100.00;98358.34;4989015;28;20411;-83
2023/10/06 05:09:44;;;;;;;10.63;5.75;;;;;;;6.44;100.00;98358.34;4997978;28;20379;-86
2023/10/06 05:12:11;;;;;;;11.07;5.63;;;;;;;6.43;100.00;98356.72;5010091;28;20412;-84
2023/10/06 05:14:39;;;;;;;11.35;5.90;;;;;;;6.43;100.00;98356.72;5007016;28;20398;-84
2023/10/06 05:17:05;;;;;;;10.40;6.32;;;;;;;6.43;100.00;98350.66;5010279;28;20428;-81
2023/10/06 05:19:34;;;;;;;11.43;6.05;;;;;;;6.42;100.00;98346.41;5016668;28;20806;-84
2023/10/06 05:22:05;;;;;;;14.13;7.55;;;;;;;6.38;100.00;98353.88;5015548;28;20450;-84
2023/10/06 05:24:32;;;;;;;13.15;6.90;;;;;;;6.37;100.00;98354.91;5016675;28;20476;-83
2023/10/06 05:26:58;;;;;;;11.25;6.72;;;;;;;6.36;100.00;98348.00;5006864;28;20920;-84
2023/10/06 05:29:25;;;;;;;11.10;6.72;;;;;;;6.35;100.00;98361.34;5009789;28;20399;-84
2023/10/06 05:31:52;;;;;;;9.57;5.88;;;;;;;6.35;100.00;98359.53;5008061;28;20402;-84
2023/10/06 05:34:18;;;;;;;12.25;6.50;;;;;;;6.35;100.00;98371.88;5006705;28;20407;-80
2023/10/06 05:36:44;;;;;;;12.32;6.57;;;;;;;6.35;100.00;98367.44;5004565;28;20409;-81
2023/10/06 05:39:12;;;;;;;11.05;6.65;;;;;;;6.38;100.00;98382.81;5007365;28;20406;-81
2023/10/06 05:41:44;;;;;;;12.40;6.55;;;;;;;6.41;100.00;98379.78;5010123;28;20812;-82
2023/10/06 05:44:12;;;;;;;14.63;7.85;;;;;;;6.41;100.00;98389.47;5016776;28;20397;-83
2023/10/06 05:46:38;;;;;;;11.13;6.70;;;;;;;6.40;100.00;98380.78;5007466;28;20456;-84
2023/10/06 05:49:05;;;;;;;11.57;6.57;;;;;;;6.39;100.00;98381.78;5009285;28;20409;-86
2023/10/06 05:51:33;;;;;;;12.20;6.53;;;;;;;6.41;100.00;98389.47;5008616;28;20407;-85
2023/10/06 05:53:59;;;;;;;10.20;6.05;;;;;;;6.42;100.00;98388.47;5014650;28;20758;-85
2023/10/06 05:56:29;;;;;;;12.68;6.72;;;;;;;6.44;100.00;98399.59;5010189;28;20413;-86
2023/10/06 05:58:55;;;;;;;11.70;6.85;;;;;;;6.44;100.00;98410.13;5013109;28;20871;-86
2023/10/06 06:01:28;;;;;;;17.70;7.47;;;;;;;6.44;100.00;98407.50;5007514;28;20449;-85
2023/10/06 06:03:57;;;;;;;13.20;7.10;;;;;;;6.45;100.00;98409.13;5005766;28;20767;-84
2023/10/06 06:06:24;;;;;;;11.15;6.95;;;;;;;6.45;100.00;98404.69;5006327;28;20427;-84
2023/10/06 06:08:51;;;;;;;13.23;7.47;;;;;;;6.49;100.00;98402.44;5008673;28;20416;-84
2023/10/06 06:11:18;;;;;;;12.43;7.20;;;;;;;6.51;100.00;98409.13;5015476;28;20400;-83
2023/10/06 06:13:45;;;;;;;11.15;6.63;;;;;;;6.55;100.00;98401.63;5011486;28;20429;-85
2023/10/06 06:16:11;;;;;;;9.98;5.80;;;;;;;6.57;100.00;98397.81;5013775;28;20414;-85
2023/10/06 06:18:42;;;;;;;10.15;6.10;;;;;;;6.60;100.00;98404.50;5002023;28;20407;-85
2023/10/06 06:21:08;;;;;;;10.07;6.17;;;;;;;6.63;100.00;98403.25;5008792;28;20449;-85
2023/10/06 06:23:35;;;;;;;10.80;6.22;;;;;;;6.67;100.00;98401.88;5002666;28;20413;-84
2023/10/06 06:26:02;;;;;;;10.02;6.50;;;;;;;6.69;100.00;98408.53;5002162;28;20895;-83
2023/10/06 06:28:28;;;;;;;10.18;6.35;;;;;;;6.73;100.00;98409.75;5002193;28;20413;-84
2023/10/06 06:30:55;;;;;;;10.80;6.38;;;;;;;6.77;100.00;98415.41;5004110;28;20402;-85
2023/10/06 06:33:25;;;;;;;9.68;6.32;;;;;;;6.80;100.00;98417.66;5009951;28;20443;-84
2023/10/06 06:35:52;;;;;;;10.25;6.53;;;;;;;6.86;100.00;98420.28;5001681;28;20441;-86
2023/10/06 06:38:18;;;;;;;12.40;6.47;;;;;;;6.92;100.00;98419.47;5011642;28;20424;-85
2023/10/06 06:40:44;;;;;;;9.32;5.75;;;;;;;7.06;100.00;98425.56;5016413;28;20399;-86
2023/10/06 06:43:11;;;;;;;9.32;5.45;;;;;;;7.22;100.00;98422.50;5011013;28;20413;-84
2023/10/06 06:45:40;;;;;;;8.77;5.30;;;;;;;7.42;100.00;98425.13;5003083;28;20422;-86
2023/10/06 06:48:12;;;;;;;7.45;5.30;;;;;;;7.61;100.00;98412.94;5003214;28;20410;-86
2023/10/06 06:50:39;;;;;;;6.87;4.80;;;;;;;7.79;100.00;98421.00;5017420;28;20449;-86
2023/10/06 06:53:05;;;;;;;6.70;4.53;;;;;;;7.94;100.00;98416.28;5012485;28;20461;-86
2023/10/06 06:55:31;;;;;;;9.57;5.40;;;;;;;8.09;100.00;98421.28;5021851;28;20907;-87
2023/10/06 06:58:00;;;;;;;9.85;5.20;;;;;;;8.23;100.00;98411.47;5014591;28;20744;-87
2023/10/06 07:00:26;;;;;;;9.18;4.82;;;;;;;8.37;100.00;98416.50;5022233;28;20777;-85
2023/10/06 07:02:53;;;;;;;9.73;5.45;;;;;;;8.50;100.00;98415.63;5006392;28;20398;-87
2023/10/06 07:05:22;;;;;;;7.63;4.82;;;;;;;8.62;100.00;98413.13;4988082;28;20914;-87
2023/10/06 07:07:52;;;;;;;7.35;4.80;;;;;;;8.71;100.00;98417.13;5006989;28;20395;-87
2023/10/06 07:10:20;;;;;;;7.90;4.68;;;;;;;8.80;100.00;98411.34;5008809;28;20398;-85
2023/10/06 07:12:50;;;;;;;8.57;5.10;;;;;;;8.90;100.00;98413.53;5009683;28;20414;-87
2023/10/06 07:15:21;;;;;;;8.25;4.93;;;;;;;8.97;100.00;98405.53;5014255;28;20405;-86
2023/10/06 07:17:49;;;;;;;7.57;4.57;;;;;;;9.05;100.00;98410.56;5012043;28;20402;-87
2023/10/06 07:20:19;;;;;;;9.18;5.35;;;;;;;9.12;100.00;98408.66;5012357;28;20414;-87
2023/10/06 07:22:47;;;;;;;9.43;5.75;;;;;;;9.20;100.00;98408.41;5021333;28;20428;-86
2023/10/06 07:25:15;;;;;;;10.88;5.65;;;;;;;9.29;100.00;98405.28;5030709;28;20425;-87
2023/10/06 07:27:43;;;;;;;9.30;5.20;;;;;;;9.39;100.00;98415.34;5026163;28;20459;-87
2023/10/06 07:30:11;;;;;;;7.13;4.60;;;;;;;9.49;100.00;98412.19;5021503;28;20417;-86
2023/10/06 07:32:43;;;;;;;9.63;5.78;;;;;;;9.57;100.00;98412.72;5032015;28;20499;-87
2023/10/06 07:35:14;;;;;;;9.77;5.53;;;;;;;9.69;100.00;98415.47;5022883;28;20412;-86
2023/10/06 07:37:43;;;;;;;8.65;5.30;;;;;;;9.80;100.00;98422.63;5016981;28;20402;-85
2023/10/06 07:40:14;;;;;;;10.40;5.60;;;;;;;9.92;100.00;98420.88;5009097;28;20433;-87
2023/10/06 07:42:42;;;;;;;8.00;4.70;;;;;;;10.05;100.00;98430.50;5020884;28;20423;-86
2023/10/06 07:45:09;;;;;;;10.00;5.70;;;;;;;10.17;100.00;98425.25;5009456;28;20422;-86
2023/10/06 07:47:36;;;;;;;8.57;5.05;;;;;;;10.27;100.00;98421.09;5017221;28;20445;-87
2023/10/06 07:50:04;;;;;;;8.10;5.15;;;;;;;10.39;100.00;98414.00;4994857;28;20496;-87
2023/10/06 07:52:31;;;;;;;8.10;4.80;;;;;;;10.51;100.00;98410.59;5005763;28;20409;-86
2023/10/06 07:54:57;;;;;;;10.17;5.47;;;;;;;10.64;100.00;98419.16;5007066;28;20438;-88
2023/10/06 07:57:31;;;;;;;8.93;4.70;;;;;;;10.82;100.00;98423.59;5004719;28;20398;-86
2023/10/06 07:59:59;;;;;;;12.45;5.88;;;;;;;11.03;100.00;98415.09;5021938;28;20750;-85
2023/10/06 08:02:26;;;;;;;9.48;4.93;;;;;;;11.28;100.00;98412.22;5020428;28;20427;-86
2023/10/06 08:04:53;;;;;;;8.70;5.18;;;;;;;11.53;100.00;98415.47;5020689;28;20448;-86
2023/10/06 08:07:26;;;;;;;18.10;7.53;;;;;;;11.67;100.00;98400.09;5007825;28;20402;-86
2023/10/06 08:09:52;;;;;;;15.48;6.40;;;;;;;11.96;100.00;98398.34;5029510;28;20397;-86
2023/10/06 08:12:18;;;;;;;15.80;6.65;;;;;;;12.38;100.00;98399.72;5023476;28;20420;-86
2023/10/06 08:14:46;;;;;;;13.60;6.13;;;;;;;12.70;100.00;98381.44;5025229;28;20412;-87
2023/10/06 08:17:12;;;;;;;19.15;7.28;;;;;;;12.71;100.00;98369.75;5029052;28;20435;-86
2023/10/06 08:19:38;;;;;;;13.07;6.43;;;;;;;13.18;100.00;98372.13;5004571;28;20399;-86
2023/10/06 08:22:06;;;;;;;19.23;6.60;;;;;;;13.35;100.00;98367.59;5006965;28;20449;-85
2023/10/06 08:24:32;;;;;;;13.32;5.53;;;;;;;13.49;100.00;98365.38;5007151;28;20401;-85
2023/10/06 08:27:00;;;;;;;11.80;5.47;;;;;;;13.67;100.00;98365.09;5014613;28;20439;-86
2023/10/06 08:29:26;;;;;;;13.95;5.43;;;;;;;13.75;100.00;98372.66;4997014;28;20452;-84
2023/10/06 08:31:54;;;;;;;12.13;5.57;;;;;;;13.93;100.00;98363.53;4999505;28;20402;-85
2023/10/06 08:34:21;;;;;;;12.88;5.60;;;;;;;13.81;100.00;98370.84;5002621;28;20755;-84
2023/10/06 08:36:48;;;;;;;8.98;4.28;;;;;;;13.78;100.00;98374.00;5004011;28;20494;-84
2023/10/06 08:39:14;;;;;;;9.80;4.97;;;;;;;13.75;100.00;98380.63;5002275;28;20465;-84
2023/10/06 08:41:44;;;;;;;10.80;4.80;;;;;;;13.74;100.00;98376.38;5000258;28;20410;-82
2023/10/06 08:44:13;;;;;;;8.55;4.57;;;;;;;13.73;100.00;98377.41;4999243;28;20409;-83
2023/10/06 08:46:44;;;;;;;9.00;4.28;;;;;;;13.76;100.00;98381.41;5007574;28;20424;-85
2023/10/06 08:49:12;;;;;;;10.98;4.45;;;;;;;13.85;100.00;98388.72;5095555;23;20428;-85
2023/10/06 08:51:40;;;;;;;7.05;3.72;;;;;;;14.00;100.00;98388.09;5004047;28;20406;-85
2023/10/06 08:54:13;;;;;;;7.72;3.53;;;;;;;14.18;100.00;98382.47;5001769;28;20392;-83
2023/10/06 08:56:39;;;;;;;6.97;3.50;;;;;;;14.33;100.00;98372.00;5004894;28;20429;-84
2023/10/06 08:59:05;;;;;;;7.70;3.72;;;;;;;14.45;100.00;98376.38;5019905;28;20409;-85
2023/10/06 09:01:33;;;;;;;7.38;3.97;;;;;;;14.55;100.00;98373.81;5010654;28;20405;-85
2023/10/06 09:04:03;;;;;;;6.23;3.77;;;;;;;14.65;100.00;98368.59;5009082;28;20406;-84
2023/10/06 09:06:31;;;;;;;6.30;4.05;;;;;;;14.73;100.00;98376.13;4999943;28;20426;-85
2023/10/06 09:08:57;;;;;;;7.93;3.92;;;;;;;14.77;100.00;98368.41;5016415;28;20400;-84
2023/10/06 09:11:38;;;;;;;10.32;4.00;;;;;;;14.87;100.00;98376.50;5012960;28;20463;-85
2023/10/06 09:14:07;;;;;;;8.48;4.15;;;;;;;14.89;100.00;98374.38;5008122;28;20402;-85
2023/10/06 09:16:48;;;;;;;11.18;4.75;;;;;;;14.89;100.00;98377.03;5007059;28;20397;-85
2023/10/06 09:19:14;;;;;;;9.73;4.95;;;;;;;14.97;100.00;98373.91;5010364;28;20471;-84
2023/10/06 09:22:00;;;;;;;7.65;4.10;;;;;;;15.04;100.00;98375.31;5002303;28;20399;-84
2023/10/06 09:24:27;;;;;;;9.80;4.68;;;;;;;15.09;100.00;98369.22;5016049;28;20751;-83
2023/10/06 09:26:55;;;;;;;9.63;4.43;;;;;;;15.15;100.00;98365.53;5011633;28;20413;-85
2023/10/06 09:29:31;;;;;;;8.85;4.35;;;;;;;15.27;100.00;98363.47;5004635;28;20400;-85
2023/10/06 09:31:57;;;;;;;8.88;4.03;;;;;;;15.34;100.00;98361.38;5009139;28;20405;-85
2023/10/06 09:34:24;;;;;;;24.95;5.80;;;;;;;15.28;100.00;98361.59;5006718;28;20403;-85
2023/10/06 09:36:53;;;;;;;11.73;4.70;;;;;;;15.35;100.00;98357.66;5009334;28;20445;-85
2023/10/06 09:39:26;;;;;;;8.05;4.15;;;;;;;15.35;100.00;98359.50;5008548;28;20406;-85
2023/10/06 09:41:54;;;;;;;7.18;3.72;;;;;;;15.46;100.00;98345.97;5006838;28;20398;-86
2023/10/06 09:44:22;;;;;;;6.78;3.72;;;;;;;15.68;100.00;98347.72;5007597;28;20953;-85
2023/10/06 09:46:52;;;;;;;7.47;3.27;;;;;;;16.06;100.00;98349.19;5007816;28;20430;-84
2023/10/06 09:49:20;;;;;;;7.22;3.67;;;;;;;16.46;100.00;98341.28;5002294;28;20414;-85
2023/10/06 09:51:46;;;;;;;7.38;3.80;;;;;;;17.03;100.00;98338.38;5007530;28;20875;-85
2023/10/06 09:54:15;;;;;;;8.07;3.75;;;;;;;17.72;100.00;98348.44;4999968;28;20399;-85
2023/10/06 09:56:42;;;;;;;8.85;4.03;;;;;;;18.18;100.00;98341.00;5004749;28;20403;-84
2023/10/06 09:59:12;;;;;;;9.90;4.13;;;;;;;18.71;100.00;98340.41;5005839;28;20775;-84
2023/10/06 10:01:42;;;;;;;17.08;6.65;;;;;;;19.06;100.00;98325.88;5006167;28;20947;-83
2023/10/06 10:04:11;;;;;;;10.32;4.93;;;;;;;19.55;100.00;98322.97;5007721;28;20399;-84
2023/10/06 10:06:43;;;;;;;11.50;4.68;;;;;;;19.93;100.00;98318.47;5010529;28;20418;-83
2023/10/06 10:09:15;;;;;;;11.07;4.35;;;;;;;19.95;100.00;98313.63;5007353;28;20498;-84
2023/10/06 10:11:48;;;;;;;12.80;5.55;;;;;;;19.70;100.00;98318.22;4993206;28;20577;-84
2023/10/06 10:14:38;;;;;;;11.55;5.43;;;;;;;19.58;100.00;98319.72;5008675;28;20401;-84
2023/10/06 10:17:18;;;;;;;11.38;5.22;;;;;;;19.21;100.00;98318.47;5015221;28;20436;-84
2023/10/06 10:19:46;;;;;;;10.88;4.82;;;;;;;18.94;100.00;98321.66;5006581;28;20398;-86
2023/10/06 10:22:16;;;;;;;9.73;4.63;;;;;;;18.72;100.00;98321.31;5007940;28;20455;-84
2023/10/06 10:24:44;;;;;;;7.72;4.32;;;;;;;18.52;100.00;98326.81;5009023;28;20407;-86
2023/10/06 10:27:14;;;;;;;8.33;4.50;;;;;;;18.40;100.00;98316.47;4994590;28;20527;-84
2023/10/06 10:29:44;;;;;;;8.52;4.20;;;;;;;18.32;100.00;98322.41;5008564;28;20409;-84
2023/10/06 10:32:15;;;;;;;7.57;4.30;;;;;;;18.31;100.00;98325.34;5004768;28;20426;-85
2023/10/06 10:35:08;;;;;;;6.82;3.50;;;;;;;18.35;100.00;98316.47;5011459;28;20436;-84
2023/10/06 10:37:52;;;;;;;8.35;3.90;;;;;;;18.43;100.00;98313.19;5002578;28;20886;-84
2023/10/06 10:40:22;;;;;;;6.95;3.20;;;;;;;18.51;100.00;98309.94;5008234;28;20777;-83
2023/10/06 10:42:54;;;;;;;8.20;3.65;;;;;;;18.63;100.00;98306.13;5008226;28;21011;-83
2023/10/06 10:45:30;;;;;;;6.82;3.05;;;;;;;18.79;100.00;98299.56;5007649;28;21192;-83
2023/10/06 10:47:58;;;;;;;13.38;5.28;;;;;;;18.70;100.00;98296.69;5005064;28;20395;-83
2023/10/06 10:50:27;;;;;;;7.68;4.10;;;;;;;18.91;100.00;98294.63;5012876;28;20885;-85
2023/10/06 10:52:53;;;;;;;8.77;4.20;;;;;;;19.11;100.00;98289.06;5013354;28;20412;-85
2023/10/06 10:55:24;;;;;;;8.20;3.83;;;;;;;19.36;100.00;98295.25;5008045;28;20481;-85
2023/10/06 10:57:51;;;;;;;9.15;3.78;;;;;;;19.61;100.00;98281.56;5007796;28;20394;-84
2023/10/06 11:00:20;;;;;;;7.32;3.42;;;;;;;19.82;100.00;98274.84;5010937;28;20433;-85
2023/10/06 11:03:02;;;;;;;6.18;3.60;;;;;;;20.07;100.00;98268.31;5006327;28;20492;-86
2023/10/06 11:05:28;;;;;;;16.15;6.18;;;;;;;19.91;100.00;98258.88;5008609;28;21036;-85
2023/10/06 11:07:56;;;;;;;7.77;4.47;;;;;;;20.12;100.00;98257.50;5010242;28;20453;-85
2023/10/06 11:10:26;;;;;;;16.27;5.88;;;;;;;20.05;100.00;98263.22;5006282;28;20844;-84
2023/10/06 11:13:15;;;;;;;8.75;4.57;;;;;;;20.07;100.00;98263.72;4999677;28;20410;-85
2023/10/06 11:15:42;;;;;;;8.93;4.25;;;;;;;20.10;100.00;98259.66;5010989;28;20526;-84
2023/10/06 11:18:09;;;;;;;7.40;3.88;;;;;;;20.17;100.00;98254.72;5002852;28;20395;-84
2023/10/06 11:20:36;;;;;;;6.43;3.40;;;;;;;20.26;100.00;98247.59;5000171;28;20891;-83
2023/10/06 11:23:03;;;;;;;10.15;4.13;;;;;;;20.25;100.00;98245.19;5001242;28;20478;-85
2023/10/06 11:25:32;;;;;;;6.75;4.00;;;;;;;20.32;100.00;98245.63;5002382;28;20429;-85
2023/10/06 11:28:04;;;;;;;7.50;3.63;;;;;;;20.46;100.00;98239.22;5004367;28;20457;-84
2023/10/06 11:30:33;;;;;;;8.57;3.73;;;;;;;20.61;100.00;98234.69;5016766;28;20434;-84
2023/10/06 11:33:01;;;;;;;6.47;3.20;;;;;;;20.80;100.00;98232.75;5018529;28;20397;-85
2023/10/06 11:35:29;;;;;;;6.10;3.23;;;;;;;21.00;100.00;98223.50;5005550;28;20409;-85
2023/10/06 11:37:56;;;;;;;8.25;3.65;;;;;;;21.22;100.00;98229.00;5004300;28;20405;-85
2023/10/06 11:40:24;;;;;;;10.80;4.80;;;;;;;21.33;100.00;98227.72;5006108;28;20428;-85